sensor_id;sensor_type;location;lat;lon;timestamp;pressure;altitude;pressure_sealevel;temperature;humidity
33949;BME280;20229;49.856;19.030;2023-03-07T00:02:06;100310.42;;;2.21;76.38
33949;BME280;20229;49.856;19.030;2023-03-07T00:07:20;100315.89;;;2.18;76.92
33949;BME280;20229;49.856;19.030;2023-03-07T00:12:33;100313.27;;;2.17;77.47
33949;BME280;20229;49.856;19.030;2023-03-07T00:17:47;100325.07;;;2.11;77.72
33949;BME280;20229;49.856;19.030;2023-03-07T00:23:01;100301.70;;;2.13;77.08
33949;BME280;20229;49.856;19.030;2023-03-07T00:28:17;100302.60;;;2.12;75.81
33949;BME280;20229;49.856;19.030;2023-03-07T00:33:30;100305.21;;;2.15;75.33
33949;BME280;20229;49.856;19.030;2023-03-07T00:38:45;100310.59;;;2.15;75.29
33949;BME280;20229;49.856;19.030;2023-03-07T00:43:59;100297.13;;;2.15;74.95
33949;BME280;20229;49.856;19.030;2023-03-07T00:49:12;100290.16;;;2.08;74.85
33949;BME280;20229;49.856;19.030;2023-03-07T00:54:26;100292.14;;;2.01;74.88
33949;BME280;20229;49.856;19.030;2023-03-07T00:59:40;100286.31;;;1.85;75.19
33949;BME280;20229;49.856;19.030;2023-03-07T01:04:53;100286.74;;;1.70;75.23
33949;BME280;20229;49.856;19.030;2023-03-07T01:10:08;100274.61;;;1.54;76.00
33949;BME280;20229;49.856;19.030;2023-03-07T01:15:22;100269.64;;;1.38;75.92
33949;BME280;20229;49.856;19.030;2023-03-07T01:20:38;100276.24;;;1.25;76.42
33949;BME280;20229;49.856;19.030;2023-03-07T01:25:52;100266.64;;;1.15;76.61
33949;BME280;20229;49.856;19.030;2023-03-07T01:31:06;100275.84;;;1.06;76.79
33949;BME280;20229;49.856;19.030;2023-03-07T01:36:22;100269.67;;;1.01;76.84
33949;BME280;20229;49.856;19.030;2023-03-07T01:41:41;100269.74;;;0.98;77.37
33949;BME280;20229;49.856;19.030;2023-03-07T01:46:57;100267.98;;;0.97;77.07
33949;BME280;20229;49.856;19.030;2023-03-07T01:52:25;100259.11;;;0.93;77.26
33949;BME280;20229;49.856;19.030;2023-03-07T01:57:36;100257.44;;;0.88;77.46
33949;BME280;20229;49.856;19.030;2023-03-07T02:03:00;100255.83;;;0.81;77.43
33949;BME280;20229;49.856;19.030;2023-03-07T02:08:16;100254.19;;;0.75;77.67
33949;BME280;20229;49.856;19.030;2023-03-07T02:13:31;100244.51;;;0.68;77.97
33949;BME280;20229;49.856;19.030;2023-03-07T02:18:48;100248.95;;;0.69;77.86
33949;BME280;20229;49.856;19.030;2023-03-07T02:24:20;100239.07;;;0.71;78.60
33949;BME280;20229;49.856;19.030;2023-03-07T02:29:57;100248.76;;;0.77;78.76
33949;BME280;20229;49.856;19.030;2023-03-07T02:35:20;100239.62;;;0.85;79.03
33949;BME280;20229;49.856;19.030;2023-03-07T02:40:35;100240.37;;;0.90;78.89
33949;BME280;20229;49.856;19.030;2023-03-07T02:45:49;100236.66;;;0.96;79.29
33949;BME280;20229;49.856;19.030;2023-03-07T02:51:03;100232.17;;;0.97;79.48
33949;BME280;20229;49.856;19.030;2023-03-07T02:56:16;100229.34;;;1.03;79.86
33949;BME280;20229;49.856;19.030;2023-03-07T03:01:30;100231.90;;;1.07;79.49
33949;BME280;20229;49.856;19.030;2023-03-07T03:06:44;100234.39;;;1.15;79.47
33949;BME280;20229;49.856;19.030;2023-03-07T03:11:58;100225.23;;;1.22;79.06
33949;BME280;20229;49.856;19.030;2023-03-07T03:17:12;100222.20;;;1.36;78.44
33949;BME280;20229;49.856;19.030;2023-03-07T03:22:26;100229.92;;;1.48;78.12
33949;BME280;20229;49.856;19.030;2023-03-07T03:27:40;100224.24;;;1.59;77.94
33949;BME280;20229;49.856;19.030;2023-03-07T03:32:54;100232.12;;;1.66;77.73
33949;BME280;20229;49.856;19.030;2023-03-07T03:38:08;100231.82;;;1.77;77.51
33949;BME280;20229;49.856;19.030;2023-03-07T03:43:22;100235.26;;;1.82;77.22
33949;BME280;20229;49.856;19.030;2023-03-07T03:48:36;100226.94;;;1.91;77.15
33949;BME280;20229;49.856;19.030;2023-03-07T03:53:50;100233.94;;;1.97;76.55
33949;BME280;20229;49.856;19.030;2023-03-07T03:59:04;100238.21;;;2.04;76.11
33949;BME280;20229;49.856;19.030;2023-03-07T04:04:18;100230.12;;;2.06;76.48
33949;BME280;20229;49.856;19.030;2023-03-07T04:09:31;100226.39;;;2.10;76.27
33949;BME280;20229;49.856;19.030;2023-03-07T04:14:45;100235.29;;;2.12;76.72
33949;BME280;20229;49.856;19.030;2023-03-07T04:19:59;100231.52;;;2.19;76.10
33949;BME280;20229;49.856;19.030;2023-03-07T04:25:13;100226.95;;;2.21;75.94
33949;BME280;20229;49.856;19.030;2023-03-07T04:30:27;100233.97;;;2.27;76.04
33949;BME280;20229;49.856;19.030;2023-03-07T04:35:41;100229.40;;;2.29;76.24
33949;BME280;20229;49.856;19.030;2023-03-07T04:40:55;100230.17;;;2.34;75.80
33949;BME280;20229;49.856;19.030;2023-03-07T04:46:12;100231.14;;;2.31;75.76
33949;BME280;20229;49.856;19.030;2023-03-07T04:51:25;100230.44;;;2.25;75.69
33949;BME280;20229;49.856;19.030;2023-03-07T04:56:39;100230.98;;;2.06;76.00
33949;BME280;20229;49.856;19.030;2023-03-07T05:01:53;100230.53;;;1.90;76.37
33949;BME280;20229;49.856;19.030;2023-03-07T05:07:07;100233.45;;;1.83;76.73
33949;BME280;20229;49.856;19.030;2023-03-07T05:12:22;100228.04;;;1.84;76.64
33949;BME280;20229;49.856;19.030;2023-03-07T05:17:36;100227.24;;;1.81;76.55
33949;BME280;20229;49.856;19.030;2023-03-07T05:22:50;100227.44;;;1.73;76.85
33949;BME280;20229;49.856;19.030;2023-03-07T05:28:04;100216.95;;;1.64;77.06
33949;BME280;20229;49.856;19.030;2023-03-07T05:33:18;100214.40;;;1.59;76.95
33949;BME280;20229;49.856;19.030;2023-03-07T05:38:32;100206.43;;;1.55;77.24
33949;BME280;20229;49.856;19.030;2023-03-07T05:43:46;100217.03;;;1.61;77.19
33949;BME280;20229;49.856;19.030;2023-03-07T05:49:00;100211.51;;;1.65;77.01
33949;BME280;20229;49.856;19.030;2023-03-07T05:54:14;100221.06;;;1.77;77.18
33949;BME280;20229;49.856;19.030;2023-03-07T05:59:27;100215.48;;;1.83;76.92
33949;BME280;20229;49.856;19.030;2023-03-07T06:04:41;100224.24;;;1.91;77.18
33949;BME280;20229;49.856;19.030;2023-03-07T06:09:55;100228.61;;;1.96;77.11
33949;BME280;20229;49.856;19.030;2023-03-07T06:15:09;100224.73;;;2.06;76.92
33949;BME280;20229;49.856;19.030;2023-03-07T06:20:22;100227.91;;;2.19;77.03
33949;BME280;20229;49.856;19.030;2023-03-07T06:25:36;100223.00;;;2.33;76.86
33949;BME280;20229;49.856;19.030;2023-03-07T06:30:51;100221.52;;;2.52;76.47
33949;BME280;20229;49.856;19.030;2023-03-07T06:36:06;100217.35;;;2.70;76.15
33949;BME280;20229;49.856;19.030;2023-03-07T06:41:20;100211.54;;;2.82;75.88
33949;BME280;20229;49.856;19.030;2023-03-07T06:46:34;100214.67;;;2.97;75.30
33949;BME280;20229;49.856;19.030;2023-03-07T06:51:48;100219.47;;;3.15;74.91
33949;BME280;20229;49.856;19.030;2023-03-07T06:57:02;100222.34;;;3.35;74.58
33949;BME280;20229;49.856;19.030;2023-03-07T07:02:16;100217.63;;;3.67;73.26
33949;BME280;20229;49.856;19.030;2023-03-07T07:07:30;100210.06;;;4.02;72.42
33949;BME280;20229;49.856;19.030;2023-03-07T07:12:44;100203.27;;;4.39;71.47
33949;BME280;20229;49.856;19.030;2023-03-07T07:17:58;100194.18;;;4.85;69.83
33949;BME280;20229;49.856;19.030;2023-03-07T07:23:11;100193.25;;;5.28;68.36
33949;BME280;20229;49.856;19.030;2023-03-07T07:28:25;100188.87;;;5.67;67.02
33949;BME280;20229;49.856;19.030;2023-03-07T07:33:39;100192.38;;;6.29;65.71
33949;BME280;20229;49.856;19.030;2023-03-07T07:38:53;100182.92;;;6.56;63.13
33949;BME280;20229;49.856;19.030;2023-03-07T07:44:07;100181.47;;;6.49;62.70
33949;BME280;20229;49.856;19.030;2023-03-07T07:49:20;100188.13;;;6.42;63.50
33949;BME280;20229;49.856;19.030;2023-03-07T07:54:34;100193.55;;;6.42;63.51
33949;BME280;20229;49.856;19.030;2023-03-07T07:59:48;100188.35;;;6.56;63.71
33949;BME280;20229;49.856;19.030;2023-03-07T08:05:02;100175.66;;;6.76;61.45
33949;BME280;20229;49.856;19.030;2023-03-07T08:10:18;100176.05;;;7.74;59.25
33949;BME280;20229;49.856;19.030;2023-03-07T08:15:32;100178.26;;;8.00;57.93
33949;BME280;20229;49.856;19.030;2023-03-07T08:20:46;100163.49;;;7.88;58.10
33949;BME280;20229;49.856;19.030;2023-03-07T08:26:04;100174.14;;;7.76;57.34
33949;BME280;20229;49.856;19.030;2023-03-07T08:31:21;100173.52;;;7.71;57.34
33949;BME280;20229;49.856;19.030;2023-03-07T08:36:36;100168.06;;;7.88;58.76
33949;BME280;20229;49.856;19.030;2023-03-07T08:41:51;100169.23;;;8.00;57.30
33949;BME280;20229;49.856;19.030;2023-03-07T08:47:08;100164.99;;;7.94;55.20
33949;BME280;20229;49.856;19.030;2023-03-07T08:52:25;100177.98;;;7.72;57.69
33949;BME280;20229;49.856;19.030;2023-03-07T08:57:39;100174.62;;;7.66;57.63
33949;BME280;20229;49.856;19.030;2023-03-07T09:02:53;100177.66;;;7.78;57.61
33949;BME280;20229;49.856;19.030;2023-03-07T09:08:10;100165.02;;;7.77;57.71
33949;BME280;20229;49.856;19.030;2023-03-07T09:13:26;100154.62;;;8.18;56.23
33949;BME280;20229;49.856;19.030;2023-03-07T09:18:39;100154.61;;;8.67;55.59
33949;BME280;20229;49.856;19.030;2023-03-07T09:23:53;100141.72;;;9.17;54.44
33949;BME280;20229;49.856;19.030;2023-03-07T09:30:25;100136.61;;;9.85;53.35
33949;BME280;20229;49.856;19.030;2023-03-07T09:35:51;100134.68;;;10.16;53.08
33949;BME280;20229;49.856;19.030;2023-03-07T09:51:59;100123.95;;;9.70;51.88
33949;BME280;20229;49.856;19.030;2023-03-07T09:57:18;100122.98;;;9.99;52.01
33949;BME280;20229;49.856;19.030;2023-03-07T10:02:45;100129.70;;;9.65;50.82
33949;BME280;20229;49.856;19.030;2023-03-07T10:08:01;100136.32;;;9.31;52.28
33949;BME280;20229;49.856;19.030;2023-03-07T10:13:31;100129.38;;;8.95;52.02
33949;BME280;20229;49.856;19.030;2023-03-07T10:24:26;100131.30;;;8.93;53.23
33949;BME280;20229;49.856;19.030;2023-03-07T10:29:48;100126.73;;;8.94;52.57
33949;BME280;20229;49.856;19.030;2023-03-07T10:35:16;100116.48;;;8.83;53.89
33949;BME280;20229;49.856;19.030;2023-03-07T10:40:38;100102.66;;;9.32;53.85
33949;BME280;20229;49.856;19.030;2023-03-07T11:07:36;100068.73;;;9.38;51.48
33949;BME280;20229;49.856;19.030;2023-03-07T11:12:49;100074.88;;;9.55;52.07
33949;BME280;20229;49.856;19.030;2023-03-07T11:18:04;100069.63;;;9.67;51.24
33949;BME280;20229;49.856;19.030;2023-03-07T11:23:22;100056.61;;;9.86;50.10
33949;BME280;20229;49.856;19.030;2023-03-07T11:34:52;100048.80;;;9.94;50.21
33949;BME280;20229;49.856;19.030;2023-03-07T11:40:22;100036.61;;;10.14;49.47
33949;BME280;20229;49.856;19.030;2023-03-07T11:51:05;100019.94;;;10.33;48.93
33949;BME280;20229;49.856;19.030;2023-03-07T11:56:28;100022.27;;;10.39;48.02
33949;BME280;20229;49.856;19.030;2023-03-07T12:01:51;100023.33;;;10.37;49.47
33949;BME280;20229;49.856;19.030;2023-03-07T12:24:00;100019.82;;;10.20;48.29
33949;BME280;20229;49.856;19.030;2023-03-07T12:34:53;100015.55;;;10.16;49.11
33949;BME280;20229;49.856;19.030;2023-03-07T12:45:39;100004.59;;;10.03;49.57
33949;BME280;20229;49.856;19.030;2023-03-07T12:56:25;100011.62;;;9.93;49.55
33949;BME280;20229;49.856;19.030;2023-03-07T13:01:48;100001.27;;;9.98;50.27
33949;BME280;20229;49.856;19.030;2023-03-07T13:12:35;99992.79;;;10.03;49.76
33949;BME280;20229;49.856;19.030;2023-03-07T13:17:55;99988.63;;;9.97;50.15
33949;BME280;20229;49.856;19.030;2023-03-07T13:23:22;99975.95;;;9.96;49.91
33949;BME280;20229;49.856;19.030;2023-03-07T13:28:40;99974.80;;;10.00;50.29
33949;BME280;20229;49.856;19.030;2023-03-07T13:33:55;99981.48;;;10.09;51.03
33949;BME280;20229;49.856;19.030;2023-03-07T13:44:37;99965.84;;;9.98;50.53
33949;BME280;20229;49.856;19.030;2023-03-07T13:49:52;99962.73;;;9.90;50.25
33949;BME280;20229;49.856;19.030;2023-03-07T13:55:13;99942.79;;;9.90;49.83
33949;BME280;20229;49.856;19.030;2023-03-07T14:00:33;99941.89;;;9.89;50.45
33949;BME280;20229;49.856;19.030;2023-03-07T14:05:49;99937.05;;;9.80;50.41
33949;BME280;20229;49.856;19.030;2023-03-07T14:11:05;99941.92;;;9.75;50.58
33949;BME280;20229;49.856;19.030;2023-03-07T14:16:35;99943.52;;;9.65;50.00
33949;BME280;20229;49.856;19.030;2023-03-07T14:21:54;99932.70;;;9.63;50.14
33949;BME280;20229;49.856;19.030;2023-03-07T14:27:12;99921.32;;;9.56;50.14
33949;BME280;20229;49.856;19.030;2023-03-07T14:32:30;99913.81;;;9.60;50.13
33949;BME280;20229;49.856;19.030;2023-03-07T14:37:44;99914.13;;;9.55;49.90
33949;BME280;20229;49.856;19.030;2023-03-07T14:54:21;99896.05;;;9.12;50.34
33949;BME280;20229;49.856;19.030;2023-03-07T14:59:41;99905.80;;;9.01;51.56
33949;BME280;20229;49.856;19.030;2023-03-07T15:04:57;99907.41;;;8.90;51.11
33949;BME280;20229;49.856;19.030;2023-03-07T15:10:16;99898.18;;;8.78;51.57
33949;BME280;20229;49.856;19.030;2023-03-07T15:15:41;99890.73;;;8.51;51.89
33949;BME280;20229;49.856;19.030;2023-03-07T15:20:56;99900.09;;;8.31;52.64
33949;BME280;20229;49.856;19.030;2023-03-07T15:26:14;99887.15;;;8.05;53.75
33949;BME280;20229;49.856;19.030;2023-03-07T15:42:25;99863.37;;;7.62;55.31
33949;BME280;20229;49.856;19.030;2023-03-07T15:47:40;99861.80;;;7.58;55.32
33949;BME280;20229;49.856;19.030;2023-03-07T15:52:59;99864.27;;;7.47;55.68
33949;BME280;20229;49.856;19.030;2023-03-07T15:58:15;99853.31;;;7.33;56.20
33949;BME280;20229;49.856;19.030;2023-03-07T16:03:30;99846.91;;;7.18;56.84
33949;BME280;20229;49.856;19.030;2023-03-07T16:08:46;99855.83;;;7.04;57.54
33949;BME280;20229;49.856;19.030;2023-03-07T16:14:00;99846.51;;;6.92;58.16
33949;BME280;20229;49.856;19.030;2023-03-07T16:19:14;99846.16;;;6.83;58.34
33949;BME280;20229;49.856;19.030;2023-03-07T16:24:28;99847.69;;;6.71;58.37
33949;BME280;20229;49.856;19.030;2023-03-07T16:29:43;99838.39;;;6.59;58.88
33949;BME280;20229;49.856;19.030;2023-03-07T16:34:56;99849.72;;;6.50;59.61
33949;BME280;20229;49.856;19.030;2023-03-07T16:40:11;99842.95;;;6.41;60.27
33949;BME280;20229;49.856;19.030;2023-03-07T16:45:30;99855.65;;;6.41;60.84
33949;BME280;20229;49.856;19.030;2023-03-07T16:50:44;99849.41;;;6.39;61.32
33949;BME280;20229;49.856;19.030;2023-03-07T16:55:58;99846.70;;;6.39;61.07
33949;BME280;20229;49.856;19.030;2023-03-07T17:01:13;99849.77;;;6.33;61.58
33949;BME280;20229;49.856;19.030;2023-03-07T17:06:27;99857.09;;;6.31;62.48
33949;BME280;20229;49.856;19.030;2023-03-07T17:11:48;99841.94;;;6.27;62.81
33949;BME280;20229;49.856;19.030;2023-03-07T17:17:04;99833.00;;;6.25;63.06
33949;BME280;20229;49.856;19.030;2023-03-07T17:22:18;99839.55;;;6.20;63.33
33949;BME280;20229;49.856;19.030;2023-03-07T17:27:33;99844.34;;;6.15;63.94
33949;BME280;20229;49.856;19.030;2023-03-07T17:32:48;99840.83;;;6.13;63.54
33949;BME280;20229;49.856;19.030;2023-03-07T17:38:01;99842.41;;;6.17;63.75
33949;BME280;20229;49.856;19.030;2023-03-07T17:43:16;99845.13;;;6.17;63.87
33949;BME280;20229;49.856;19.030;2023-03-07T17:48:30;99839.64;;;6.19;64.57
33949;BME280;20229;49.856;19.030;2023-03-07T17:53:44;99825.37;;;6.15;64.08
33949;BME280;20229;49.856;19.030;2023-03-07T17:58:58;99822.73;;;6.14;64.50
33949;BME280;20229;49.856;19.030;2023-03-07T18:04:13;99819.23;;;6.12;64.79
33949;BME280;20229;49.856;19.030;2023-03-07T18:09:27;99826.25;;;6.16;64.20
33949;BME280;20229;49.856;19.030;2023-03-07T18:14:41;99820.89;;;6.14;64.51
33949;BME280;20229;49.856;19.030;2023-03-07T18:19:55;99820.74;;;6.17;64.36
33949;BME280;20229;49.856;19.030;2023-03-07T18:25:11;99815.32;;;6.17;64.16
33949;BME280;20229;49.856;19.030;2023-03-07T18:30:25;99815.16;;;6.20;64.25
33949;BME280;20229;49.856;19.030;2023-03-07T18:35:39;99802.58;;;6.19;64.30
33949;BME280;20229;49.856;19.030;2023-03-07T18:46:20;99807.99;;;6.19;63.94
33949;BME280;20229;49.856;19.030;2023-03-07T18:51:35;99806.06;;;6.21;64.37
33949;BME280;20229;49.856;19.030;2023-03-07T18:56:48;99795.31;;;6.20;63.87
33949;BME280;20229;49.856;19.030;2023-03-07T19:02:02;99788.87;;;6.22;63.79
33949;BME280;20229;49.856;19.030;2023-03-07T19:07:16;99792.51;;;6.21;63.92
33949;BME280;20229;49.856;19.030;2023-03-07T19:12:30;99775.16;;;6.26;63.73
33949;BME280;20229;49.856;19.030;2023-03-07T19:17:44;99785.09;;;6.25;63.65
33949;BME280;20229;49.856;19.030;2023-03-07T19:22:57;99778.81;;;6.25;63.62
33949;BME280;20229;49.856;19.030;2023-03-07T19:28:11;99775.16;;;6.26;63.65
33949;BME280;20229;49.856;19.030;2023-03-07T19:33:25;99772.36;;;6.27;63.41
33949;BME280;20229;49.856;19.030;2023-03-07T19:38:39;99765.09;;;6.28;63.29
33949;BME280;20229;49.856;19.030;2023-03-07T19:43:55;99773.06;;;6.31;63.15
33949;BME280;20229;49.856;19.030;2023-03-07T19:49:09;99765.80;;;6.31;63.24
33949;BME280;20229;49.856;19.030;2023-03-07T19:54:23;99759.35;;;6.34;62.85
33949;BME280;20229;49.856;19.030;2023-03-07T19:59:37;99758.48;;;6.33;62.83
33949;BME280;20229;49.856;19.030;2023-03-07T20:04:50;99758.38;;;6.35;62.91
33949;BME280;20229;49.856;19.030;2023-03-07T20:10:09;99764.68;;;6.35;62.96
33949;BME280;20229;49.856;19.030;2023-03-07T20:15:23;99759.19;;;6.37;62.97
33949;BME280;20229;49.856;19.030;2023-03-07T20:20:36;99762.77;;;6.37;63.23
33949;BME280;20229;49.856;19.030;2023-03-07T20:25:50;99760.13;;;6.36;63.54
33949;BME280;20229;49.856;19.030;2023-03-07T20:31:05;99760.13;;;6.36;63.60
33949;BME280;20229;49.856;19.030;2023-03-07T20:36:28;99750.19;;;6.36;63.77
33949;BME280;20229;49.856;19.030;2023-03-07T20:41:42;99760.13;;;6.36;63.92
33949;BME280;20229;49.856;19.030;2023-03-07T20:46:56;99754.70;;;6.36;64.06
33949;BME280;20229;49.856;19.030;2023-03-07T20:52:10;99757.51;;;6.34;64.42
33949;BME280;20229;49.856;19.030;2023-03-07T20:57:25;99768.35;;;6.34;64.36
33949;BME280;20229;49.856;19.030;2023-03-07T21:02:39;99775.67;;;6.32;64.74
33949;BME280;20229;49.856;19.030;2023-03-07T21:07:54;99751.38;;;6.31;64.53
33949;BME280;20229;49.856;19.030;2023-03-07T21:13:07;99769.65;;;6.27;64.73
33949;BME280;20229;49.856;19.030;2023-03-07T21:18:26;99754.35;;;6.26;64.96
33949;BME280;20229;49.856;19.030;2023-03-07T21:23:40;99757.99;;;6.25;65.12
33949;BME280;20229;49.856;19.030;2023-03-07T21:28:54;99768.84;;;6.25;65.17
33949;BME280;20229;49.856;19.030;2023-03-07T21:34:11;99765.51;;;6.20;65.62
33949;BME280;20229;49.856;19.030;2023-03-07T21:39:26;99770.93;;;6.20;65.90
33949;BME280;20229;49.856;19.030;2023-03-07T21:44:40;99773.73;;;6.18;65.98
33949;BME280;20229;49.856;19.030;2023-03-07T21:49:54;99771.02;;;6.18;66.04
33949;BME280;20229;49.856;19.030;2023-03-07T21:55:08;99774.92;;;6.13;66.76
33949;BME280;20229;49.856;19.030;2023-03-07T22:00:22;99773.89;;;6.15;66.83
33949;BME280;20229;49.856;19.030;2023-03-07T22:05:37;99761.47;;;6.11;66.94
33949;BME280;20229;49.856;19.030;2023-03-07T22:10:58;99766.24;;;6.06;66.78
33949;BME280;20229;49.856;19.030;2023-03-07T22:16:15;99766.65;;;5.98;66.99
33949;BME280;20229;49.856;19.030;2023-03-07T22:21:29;99745.30;;;5.92;67.29
33949;BME280;20229;49.856;19.030;2023-03-07T22:26:43;99748.99;;;5.90;67.52
33949;BME280;20229;49.856;19.030;2023-03-07T22:31:57;99747.25;;;5.89;67.44
33949;BME280;20229;49.856;19.030;2023-03-07T22:37:11;99750.77;;;5.91;67.20
33949;BME280;20229;49.856;19.030;2023-03-07T22:42:24;99737.10;;;5.94;67.04
33949;BME280;20229;49.856;19.030;2023-03-07T22:47:38;99758.90;;;5.91;67.06
33949;BME280;20229;49.856;19.030;2023-03-07T22:52:53;99760.64;;;5.92;67.01
33949;BME280;20229;49.856;19.030;2023-03-07T22:58:08;99750.77;;;5.91;67.05
33949;BME280;20229;49.856;19.030;2023-03-07T23:03:22;99737.30;;;5.89;67.62
33949;BME280;20229;49.856;19.030;2023-03-07T23:08:36;99756.26;;;5.89;67.65
33949;BME280;20229;49.856;19.030;2023-03-07T23:13:50;99759.92;;;5.88;68.14
33949;BME280;20229;49.856;19.030;2023-03-07T23:19:04;99769.88;;;5.88;68.13
33949;BME280;20229;49.856;19.030;2023-03-07T23:24:18;99774.27;;;5.90;68.08
33949;BME280;20229;49.856;19.030;2023-03-07T23:29:32;99775.31;;;5.88;67.71
33949;BME280;20229;49.856;19.030;2023-03-07T23:34:45;99776.08;;;5.90;67.76
33949;BME280;20229;49.856;19.030;2023-03-07T23:40:00;99769.88;;;5.88;67.50
33949;BME280;20229;49.856;19.030;2023-03-07T23:45:14;99782.47;;;5.89;67.57
33949;BME280;20229;49.856;19.030;2023-03-07T23:50:27;99786.15;;;5.88;67.30
33949;BME280;20229;49.856;19.030;2023-03-07T23:55:41;99793.15;;;5.92;66.99
